sensor_id;sensor_type;location;lat;lon;timestamp;P1;P2;P0
64570;PMS5003;61095;52.454;16.948;2023-05-15T06:04:00;22.33;21.00;15.00
64570;PMS5003;61095;52.454;16.948;2023-05-15T06:09:00;23.00;22.00;14.00
64570;PMS5003;61095;52.454;16.948;2023-05-15T06:14:00;23.67;22.33;14.33
64570;PMS5003;61095;52.454;16.948;2023-05-15T06:19:02;24.33;22.33;14.67
64570;PMS5003;61095;52.454;16.948;2023-05-15T06:24:02;26.33;23.67;17.00
64570;PMS5003;61095;52.454;16.948;2023-05-15T06:29:03;25.00;24.33;16.67
64570;PMS5003;61095;52.454;16.948;2023-05-15T06:34:05;27.33;26.00;18.00
64570;PMS5003;61095;52.454;16.948;2023-05-15T06:39:05;28.33;27.33;18.00
64570;PMS5003;61095;52.454;16.948;2023-05-15T06:44:05;29.00;27.00;18.00
64570;PMS5003;61095;52.454;16.948;2023-05-15T06:49:07;28.00;27.00;18.00
64570;PMS5003;61095;52.454;16.948;2023-05-15T06:54:07;28.00;27.00;18.00
64570;PMS5003;61095;52.454;16.948;2023-05-15T06:59:08;26.00;25.33;18.00
64570;PMS5003;61095;52.454;16.948;2023-05-15T07:04:09;25.00;24.00;17.00
64570;PMS5003;61095;52.454;16.948;2023-05-15T07:09:11;23.00;22.33;16.33
64570;PMS5003;61095;52.454;16.948;2023-05-15T07:14:11;21.33;21.00;15.00
64570;PMS5003;61095;52.454;16.948;2023-05-15T07:19:15;21.00;20.33;14.00
64570;PMS5003;61095;52.454;16.948;2023-05-15T07:24:16;21.33;21.00;12.00
64570;PMS5003;61095;52.454;16.948;2023-05-15T07:29:16;23.33;21.00;13.00
64570;PMS5003;61095;52.454;16.948;2023-05-15T07:34:18;22.00;20.33;14.00
64570;PMS5003;61095;52.454;16.948;2023-05-15T07:39:18;23.00;20.33;14.33
64570;PMS5003;61095;52.454;16.948;2023-05-15T07:44:19;25.00;21.67;15.00
64570;PMS5003;61095;52.454;16.948;2023-05-15T07:49:20;24.00;22.00;16.00
64570;PMS5003;61095;52.454;16.948;2023-05-15T07:54:21;23.33;21.33;15.00
64570;PMS5003;61095;52.454;16.948;2023-05-15T07:59:21;23.00;22.00;15.00
64570;PMS5003;61095;52.454;16.948;2023-05-15T08:04:23;24.00;22.00;14.33
64570;PMS5003;61095;52.454;16.948;2023-05-15T08:09:23;24.00;24.00;16.00
64570;PMS5003;61095;52.454;16.948;2023-05-15T08:14:24;27.67;26.00;16.00
64570;PMS5003;61095;52.454;16.948;2023-05-15T08:19:25;26.00;26.00;15.67
64570;PMS5003;61095;52.454;16.948;2023-05-15T08:24:26;26.00;25.00;14.00
64570;PMS5003;61095;52.454;16.948;2023-05-15T08:29:26;27.00;25.00;15.00
64570;PMS5003;61095;52.454;16.948;2023-05-15T08:34:28;26.00;26.00;16.00
64570;PMS5003;61095;52.454;16.948;2023-05-15T08:39:29;24.33;24.33;16.00
64570;PMS5003;61095;52.454;16.948;2023-05-15T08:44:29;25.67;25.67;17.00
64570;PMS5003;61095;52.454;16.948;2023-05-15T08:49:38;25.00;25.00;16.00
64570;PMS5003;61095;52.454;16.948;2023-05-15T08:54:46;24.00;24.00;16.00
64570;PMS5003;61095;52.454;16.948;2023-05-15T08:59:47;24.33;24.33;15.33
64570;PMS5003;61095;52.454;16.948;2023-05-15T09:04:49;23.00;22.00;14.33
64570;PMS5003;61095;52.454;16.948;2023-05-15T09:09:49;21.33;21.33;14.00
64570;PMS5003;61095;52.454;16.948;2023-05-15T09:14:51;22.00;21.33;13.00
64570;PMS5003;61095;52.454;16.948;2023-05-15T09:20:10;21.33;20.33;14.00
64570;PMS5003;61095;52.454;16.948;2023-05-15T09:25:36;24.33;21.00;14.00
64570;PMS5003;61095;52.454;16.948;2023-05-15T09:30:38;24.00;21.00;14.00
64570;PMS5003;61095;52.454;16.948;2023-05-15T09:35:42;23.67;21.00;14.67
64570;PMS5003;61095;52.454;16.948;2023-05-15T09:40:43;24.67;23.00;15.00
64570;PMS5003;61095;52.454;16.948;2023-05-15T09:45:45;24.33;23.00;16.00
64570;PMS5003;61095;52.454;16.948;2023-05-15T09:50:47;24.00;23.00;17.00
64570;PMS5003;61095;52.454;16.948;2023-05-15T09:55:48;26.00;25.00;16.00
64570;PMS5003;61095;52.454;16.948;2023-05-15T10:00:49;27.67;26.00;18.00
64570;PMS5003;61095;52.454;16.948;2023-05-15T10:05:51;28.00;25.00;18.00
64570;PMS5003;61095;52.454;16.948;2023-05-15T10:10:58;31.00;26.67;18.00
64570;PMS5003;61095;52.454;16.948;2023-05-15T10:15:59;28.00;24.00;18.00
64570;PMS5003;61095;52.454;16.948;2023-05-15T10:21:02;28.00;25.67;17.33
64570;PMS5003;61095;52.454;16.948;2023-05-15T10:26:06;27.00;26.00;17.00
64570;PMS5003;61095;52.454;16.948;2023-05-15T10:31:10;25.00;24.00;17.00
64570;PMS5003;61095;52.454;16.948;2023-05-15T10:36:13;24.67;23.00;16.67
64570;PMS5003;61095;52.454;16.948;2023-05-15T10:41:14;25.33;25.33;17.00
64570;PMS5003;61095;52.454;16.948;2023-05-15T10:46:16;28.33;27.00;18.00
64570;PMS5003;61095;52.454;16.948;2023-05-15T10:51:22;27.00;26.00;18.00
64570;PMS5003;61095;52.454;16.948;2023-05-15T10:56:25;27.00;25.00;16.33
64570;PMS5003;61095;52.454;16.948;2023-05-15T11:01:28;27.67;26.67;18.00
64570;PMS5003;61095;52.454;16.948;2023-05-15T11:06:31;28.00;27.00;18.00
64570;PMS5003;61095;52.454;16.948;2023-05-15T11:16:57;28.00;25.33;17.33
64570;PMS5003;61095;52.454;16.948;2023-05-15T11:22:19;27.00;24.00;18.00
64570;PMS5003;61095;52.454;16.948;2023-05-15T11:27:20;26.67;25.33;18.00
64570;PMS5003;61095;52.454;16.948;2023-05-15T11:37:46;26.67;26.67;16.00
64570;PMS5003;61095;52.454;16.948;2023-05-15T11:43:03;27.00;26.00;18.00
64570;PMS5003;61095;52.454;16.948;2023-05-15T11:48:06;25.00;24.00;18.00
64570;PMS5003;61095;52.454;16.948;2023-05-15T11:53:08;25.00;24.00;18.00
64570;PMS5003;61095;52.454;16.948;2023-05-15T11:58:09;27.67;25.00;17.33
64570;PMS5003;61095;52.454;16.948;2023-05-15T12:03:14;29.00;26.00;17.00
64570;PMS5003;61095;52.454;16.948;2023-05-15T12:08:17;26.00;25.00;17.00
64570;PMS5003;61095;52.454;16.948;2023-05-15T12:13:19;29.00;27.00;18.00
64570;PMS5003;61095;52.454;16.948;2023-05-15T12:18:20;28.00;27.00;17.00
64570;PMS5003;61095;52.454;16.948;2023-05-15T12:23:22;25.00;24.33;16.00
64570;PMS5003;61095;52.454;16.948;2023-05-15T12:28:24;25.33;25.33;15.00
64570;PMS5003;61095;52.454;16.948;2023-05-15T12:33:25;26.00;26.00;15.00
64570;PMS5003;61095;52.454;16.948;2023-05-15T12:38:28;28.33;27.00;16.33
64570;PMS5003;61095;52.454;16.948;2023-05-15T12:43:29;27.33;26.33;18.00
64570;PMS5003;61095;52.454;16.948;2023-05-15T12:48:30;29.00;28.00;18.00
64570;PMS5003;61095;52.454;16.948;2023-05-15T12:53:33;30.00;27.67;18.00
64570;PMS5003;61095;52.454;16.948;2023-05-15T12:58:33;29.33;28.33;18.00
64570;PMS5003;61095;52.454;16.948;2023-05-15T13:03:34;28.00;27.00;19.00
64570;PMS5003;61095;52.454;16.948;2023-05-15T13:08:39;30.67;29.00;19.00
64570;PMS5003;61095;52.454;16.948;2023-05-15T13:13:41;31.00;29.00;18.00
64570;PMS5003;61095;52.454;16.948;2023-05-15T13:18:41;31.00;28.00;18.00
64570;PMS5003;61095;52.454;16.948;2023-05-15T13:23:43;28.00;27.00;17.33
64570;PMS5003;61095;52.454;16.948;2023-05-15T13:28:44;28.00;26.33;17.00
64570;PMS5003;61095;52.454;16.948;2023-05-15T13:33:44;27.00;27.00;18.00
64570;PMS5003;61095;52.454;16.948;2023-05-15T13:38:46;29.33;27.33;18.00
64570;PMS5003;61095;52.454;16.948;2023-05-15T13:43:47;28.00;27.00;16.67
64570;PMS5003;61095;52.454;16.948;2023-05-15T13:48:47;30.00;27.00;18.00
64570;PMS5003;61095;52.454;16.948;2023-05-15T13:53:49;30.67;27.67;17.00
64570;PMS5003;61095;52.454;16.948;2023-05-15T13:58:49;30.67;28.00;18.00
64570;PMS5003;61095;52.454;16.948;2023-05-15T14:03:50;30.00;27.00;17.00
64570;PMS5003;61095;52.454;16.948;2023-05-15T14:08:53;28.67;27.00;16.00
64570;PMS5003;61095;52.454;16.948;2023-05-15T14:13:53;27.00;26.33;16.00
64570;PMS5003;61095;52.454;16.948;2023-05-15T14:18:54;27.67;25.67;15.00
64570;PMS5003;61095;52.454;16.948;2023-05-15T14:23:55;27.33;25.33;16.00
64570;PMS5003;61095;52.454;16.948;2023-05-15T14:28:56;27.00;25.33;17.00
64570;PMS5003;61095;52.454;16.948;2023-05-15T14:33:57;26.00;25.67;16.67
64570;PMS5003;61095;52.454;16.948;2023-05-15T14:38:59;27.00;27.00;18.00
64570;PMS5003;61095;52.454;16.948;2023-05-15T14:43:59;24.33;24.00;17.00
64570;PMS5003;61095;52.454;16.948;2023-05-15T14:49:01;25.33;23.33;16.00
64570;PMS5003;61095;52.454;16.948;2023-05-15T14:54:03;27.33;25.67;17.67
64570;PMS5003;61095;52.454;16.948;2023-05-15T14:59:04;27.00;25.67;16.00
64570;PMS5003;61095;52.454;16.948;2023-05-15T15:04:04;26.33;24.00;16.00
64570;PMS5003;61095;52.454;16.948;2023-05-15T15:09:06;24.00;24.00;14.67
64570;PMS5003;61095;52.454;16.948;2023-05-15T15:14:06;21.00;21.00;15.00
64570;PMS5003;61095;52.454;16.948;2023-05-15T15:19:06;23.00;23.00;15.00
64570;PMS5003;61095;52.454;16.948;2023-05-15T15:24:08;22.67;22.00;15.00
64570;PMS5003;61095;52.454;16.948;2023-05-15T15:29:09;22.67;21.67;14.00
64570;PMS5003;61095;52.454;16.948;2023-05-15T15:34:09;21.33;21.33;13.33
64570;PMS5003;61095;52.454;16.948;2023-05-15T15:39:20;22.00;22.00;13.00
64570;PMS5003;61095;52.454;16.948;2023-05-15T15:44:22;23.00;22.00;13.33
64570;PMS5003;61095;52.454;16.948;2023-05-15T15:49:22;24.33;23.67;14.00
64570;PMS5003;61095;52.454;16.948;2023-05-15T15:54:24;23.33;23.33;14.00
64570;PMS5003;61095;52.454;16.948;2023-05-15T15:59:24;23.67;23.33;13.33
64570;PMS5003;61095;52.454;16.948;2023-05-15T16:04:25;26.33;25.33;15.00
64570;PMS5003;61095;52.454;16.948;2023-05-15T16:09:26;25.00;24.33;16.67
64570;PMS5003;61095;52.454;16.948;2023-05-15T16:14:27;25.67;24.33;15.00
64570;PMS5003;61095;52.454;16.948;2023-05-15T16:19:27;27.00;25.33;16.00
64570;PMS5003;61095;52.454;16.948;2023-05-15T16:24:29;28.67;27.33;17.00
64570;PMS5003;61095;52.454;16.948;2023-05-15T16:29:29;28.33;27.33;17.00
64570;PMS5003;61095;52.454;16.948;2023-05-15T16:34:30;30.33;28.00;18.00
64570;PMS5003;61095;52.454;16.948;2023-05-15T16:39:35;27.00;27.00;19.00
64570;PMS5003;61095;52.454;16.948;2023-05-15T16:44:35;29.00;27.67;18.00
64570;PMS5003;61095;52.454;16.948;2023-05-15T16:49:36;29.33;28.33;17.00
64570;PMS5003;61095;52.454;16.948;2023-05-15T16:54:38;28.67;27.33;16.67
64570;PMS5003;61095;52.454;16.948;2023-05-15T16:59:38;28.00;27.33;17.00
64570;PMS5003;61095;52.454;16.948;2023-05-15T17:04:38;28.67;27.33;17.00
64570;PMS5003;61095;52.454;16.948;2023-05-15T17:09:40;26.33;26.33;18.00
64570;PMS5003;61095;52.454;16.948;2023-05-15T17:14:40;29.00;27.33;17.33
64570;PMS5003;61095;52.454;16.948;2023-05-15T17:19:41;30.00;28.33;17.33
64570;PMS5003;61095;52.454;16.948;2023-05-15T17:24:43;27.33;27.33;18.00
64570;PMS5003;61095;52.454;16.948;2023-05-15T17:29:43;28.33;26.67;18.00
64570;PMS5003;61095;52.454;16.948;2023-05-15T17:34:44;27.33;27.00;17.00
64570;PMS5003;61095;52.454;16.948;2023-05-15T17:39:46;25.00;24.33;15.67
64570;PMS5003;61095;52.454;16.948;2023-05-15T17:44:46;25.33;24.33;16.00
64570;PMS5003;61095;52.454;16.948;2023-05-15T17:49:47;25.00;24.33;16.00
64570;PMS5003;61095;52.454;16.948;2023-05-15T17:54:49;24.00;23.00;14.00
64570;PMS5003;61095;52.454;16.948;2023-05-15T17:59:50;20.00;20.00;12.00
64570;PMS5003;61095;52.454;16.948;2023-05-15T18:04:50;19.00;19.00;12.00
64570;PMS5003;61095;52.454;16.948;2023-05-15T18:09:52;19.33;18.33;10.00
64570;PMS5003;61095;52.454;16.948;2023-05-15T18:14:53;18.00;17.00;9.00
64570;PMS5003;61095;52.454;16.948;2023-05-15T18:19:53;19.00;18.00;8.67
64570;PMS5003;61095;52.454;16.948;2023-05-15T18:24:57;18.33;17.67;9.00
64570;PMS5003;61095;52.454;16.948;2023-05-15T18:29:58;18.00;18.00;9.00
64570;PMS5003;61095;52.454;16.948;2023-05-15T18:34:58;16.00;16.00;9.00
64570;PMS5003;61095;52.454;16.948;2023-05-15T18:40:00;17.00;16.00;7.00
64570;PMS5003;61095;52.454;16.948;2023-05-15T18:45:01;16.00;16.00;8.33
64570;PMS5003;61095;52.454;16.948;2023-05-15T18:50:01;18.00;18.00;9.00
64570;PMS5003;61095;52.454;16.948;2023-05-15T18:55:03;18.00;17.00;10.00
64570;PMS5003;61095;52.454;16.948;2023-05-15T19:00:05;19.00;19.00;11.00
64570;PMS5003;61095;52.454;16.948;2023-05-15T19:05:06;19.00;19.00;10.00
64570;PMS5003;61095;52.454;16.948;2023-05-15T19:10:08;18.33;18.33;10.00
64570;PMS5003;61095;52.454;16.948;2023-05-15T19:15:09;18.33;18.33;10.00
64570;PMS5003;61095;52.454;16.948;2023-05-15T19:20:11;19.67;19.67;10.33
64570;PMS5003;61095;52.454;16.948;2023-05-15T19:25:13;21.00;20.00;11.00
64570;PMS5003;61095;52.454;16.948;2023-05-15T19:30:14;18.00;17.00;10.33
64570;PMS5003;61095;52.454;16.948;2023-05-15T19:35:26;18.00;17.67;10.33
64570;PMS5003;61095;52.454;16.948;2023-05-15T19:40:28;18.00;17.67;9.67
64570;PMS5003;61095;52.454;16.948;2023-05-15T19:45:29;17.00;16.00;9.00
64570;PMS5003;61095;52.454;16.948;2023-05-15T19:50:29;17.00;16.00;10.00
64570;PMS5003;61095;52.454;16.948;2023-05-15T19:55:31;19.00;19.00;11.00
64570;PMS5003;61095;52.454;16.948;2023-05-15T20:00:31;20.00;18.00;11.33
64570;PMS5003;61095;52.454;16.948;2023-05-15T20:05:31;18.00;17.00;9.33
64570;PMS5003;61095;52.454;16.948;2023-05-15T20:10:33;18.00;17.00;9.33
64570;PMS5003;61095;52.454;16.948;2023-05-15T20:15:34;18.67;18.00;9.00
64570;PMS5003;61095;52.454;16.948;2023-05-15T20:20:34;17.00;17.00;8.00
64570;PMS5003;61095;52.454;16.948;2023-05-15T20:25:36;16.67;16.00;8.00
64570;PMS5003;61095;52.454;16.948;2023-05-15T20:30:36;17.00;17.00;9.00
64570;PMS5003;61095;52.454;16.948;2023-05-15T20:35:37;17.00;17.00;9.00
64570;PMS5003;61095;52.454;16.948;2023-05-15T20:40:38;19.00;17.00;9.33
64570;PMS5003;61095;52.454;16.948;2023-05-15T20:45:39;19.00;18.00;8.33
64570;PMS5003;61095;52.454;16.948;2023-05-15T20:50:39;18.33;18.00;11.00
64570;PMS5003;61095;52.454;16.948;2023-05-15T20:55:41;18.00;17.00;10.00
64570;PMS5003;61095;52.454;16.948;2023-05-15T21:00:41;19.33;18.33;12.33
64570;PMS5003;61095;52.454;16.948;2023-05-15T21:05:44;20.00;19.00;13.00
64570;PMS5003;61095;52.454;16.948;2023-05-15T21:10:46;17.33;16.00;10.00
64570;PMS5003;61095;52.454;16.948;2023-05-15T21:15:56;16.00;15.00;8.33
64570;PMS5003;61095;52.454;16.948;2023-05-15T21:20:56;17.33;17.00;9.33
64570;PMS5003;61095;52.454;16.948;2023-05-15T21:25:58;17.33;16.00;8.67
64570;PMS5003;61095;52.454;16.948;2023-05-15T21:31:03;19.67;17.67;10.00
64570;PMS5003;61095;52.454;16.948;2023-05-15T21:36:05;18.33;17.33;10.00
64570;PMS5003;61095;52.454;16.948;2023-05-15T21:41:06;18.00;18.00;9.00
64570;PMS5003;61095;52.454;16.948;2023-05-15T21:46:07;20.00;17.67;10.00
64570;PMS5003;61095;52.454;16.948;2023-05-15T21:51:07;19.00;17.33;8.33
64570;PMS5003;61095;52.454;16.948;2023-05-15T21:56:09;19.00;18.33;9.00
